Terminal Aerodrome Forecast
Issued by NWS

Home | Current Version | Previous Version | Text Only | Print | Product List | Glossary On
Versions: 1 2 3 4 5 6 7 8 9 10 11 12 13 14
000
FTUS41 KLWX 301300 AAA
TAFMTN
TAF AMD
KMTN 301302Z 3013/0112 00000KT 5SM BR SCT009 SCT016
     FM301400 00000KT P6SM FEW050 SCT090
     FM010300 09004KT P6SM BKN090=

USA.gov is the U.S. government's official web portal to all federal, state and local government web resources and services.